Time,TemperatureF,DewpointF,PressureIn,WindDirection,WindDirectionDegrees,WindSpeedMPH,WindSpeedGustMPH,Humidity,HourlyPrecipIn,Conditions,Clouds,dailyrainin,SoftwareType,DateUTC
2013-05-27 00:00:00,53.3,45.2,30.27,SSW,200,0.0,0.0,74,0.00,,---,0.00,VWS V14.01,2013-05-27 04:00:00,
2013-05-27 00:01:00,53.3,45.2,30.27,SSW,200,0.0,0.0,74,0.00,,---,0.00,VWS V14.01,2013-05-27 04:01:00,
2013-05-27 00:06:00,53.1,45.4,30.27,SSW,200,0.0,0.0,75,0.00,,---,0.00,VWS V14.01,2013-05-27 04:06:00,
2013-05-27 00:11:00,52.8,46.1,30.28,SSW,200,0.0,0.0,78,0.00,,---,0.00,VWS V14.01,2013-05-27 04:11:00,
2013-05-27 00:16:00,52.5,46.2,30.28,SSW,200,0.0,0.0,79,0.00,,---,0.00,VWS V14.01,2013-05-27 04:16:00,
2013-05-27 00:21:00,52.1,45.8,30.27,SSW,200,0.0,0.0,79,0.00,,---,0.00,VWS V14.01,2013-05-27 04:21:00,
2013-05-27 00:26:00,51.5,45.9,30.27,SSW,200,0.0,0.0,81,0.00,,---,0.00,VWS V14.01,2013-05-27 04:26:00,
2013-05-27 00:30:00,51.2,45.9,30.28,SSW,200,0.0,0.0,82,0.00,,---,0.00,VWS V14.01,2013-05-27 04:30:00,
2013-05-27 00:31:00,51.0,45.7,30.28,SSW,200,0.0,0.0,82,0.00,,---,0.00,VWS V14.01,2013-05-27 04:31:00,
2013-05-27 00:36:00,50.7,45.7,30.28,SSW,200,0.0,0.0,83,0.00,,---,0.00,VWS V14.01,2013-05-27 04:36:00,
2013-05-27 00:41:00,50.4,45.4,30.28,SSW,200,0.0,0.0,83,0.00,,---,0.00,VWS V14.01,2013-05-27 04:41:00,
2013-05-27 00:46:00,50.2,45.6,30.28,West,265,1.0,4.0,84,0.00,,---,0.00,VWS V14.01,2013-05-27 04:46:00,
2013-05-27 00:51:00,49.9,45.3,30.28,West,265,0.0,4.0,84,0.00,,---,0.00,VWS V14.01,2013-05-27 04:51:00,
2013-05-27 00:56:00,49.8,45.5,30.28,West,265,0.0,4.0,85,0.00,,---,0.00,VWS V14.01,2013-05-27 04:56:00,
2013-05-27 01:00:00,49.8,45.5,30.28,West,265,0.0,4.0,85,0.00,,---,0.00,VWS V14.01,2013-05-27 05:00:00,
2013-05-27 01:01:00,49.7,45.4,30.28,West,265,0.0,0.0,85,0.00,,---,0.00,VWS V14.01,2013-05-27 05:01:00,
2013-05-27 01:06:00,49.4,45.1,30.28,West,265,0.0,0.0,85,0.00,,---,0.00,VWS V14.01,2013-05-27 05:06:00,
2013-05-27 01:11:00,49.3,45.0,30.29,West,265,0.0,0.0,85,0.00,,---,0.00,VWS V14.01,2013-05-27 05:11:00,
2013-05-27 01:16:00,49.4,44.8,30.29,West,265,0.0,0.0,84,0.00,,---,0.00,VWS V14.01,2013-05-27 05:16:00,
2013-05-27 01:21:00,49.5,44.9,30.29,West,265,0.0,0.0,84,0.00,,---,0.00,VWS V14.01,2013-05-27 05:21:00,
2013-05-27 01:26:00,49.6,45.0,30.28,West,265,0.0,2.0,84,0.00,,---,0.00,VWS V14.01,2013-05-27 05:26:00,
2013-05-27 01:30:00,49.6,44.7,30.28,West,265,0.0,2.0,83,0.00,,---,0.00,VWS V14.01,2013-05-27 05:30:00,
2013-05-27 01:31:00,49.5,44.9,30.29,West,265,0.0,0.0,84,0.00,,---,0.00,VWS V14.01,2013-05-27 05:31:00,
2013-05-27 01:36:00,49.4,44.8,30.29,West,265,0.0,0.0,84,0.00,,---,0.00,VWS V14.01,2013-05-27 05:36:00,
2013-05-27 01:41:00,49.2,44.6,30.28,West,265,0.0,0.0,84,0.00,,---,0.00,VWS V14.01,2013-05-27 05:41:00,
2013-05-27 01:46:00,49.0,44.7,30.28,West,265,1.0,3.0,85,0.00,,---,0.00,VWS V14.01,2013-05-27 05:46:00,
2013-05-27 01:51:00,48.8,44.5,30.28,West,267,0.0,4.0,85,0.00,,---,0.00,VWS V14.01,2013-05-27 05:51:00,
2013-05-27 01:56:00,48.6,44.6,30.28,West,267,0.0,4.0,86,0.00,,---,0.00,VWS V14.01,2013-05-27 05:56:00,
2013-05-27 02:00:00,48.6,44.6,30.28,West,267,1.0,4.0,86,0.00,,---,0.00,VWS V14.01,2013-05-27 06:00:00,
2013-05-27 02:01:00,48.5,44.5,30.28,West,267,2.0,3.0,86,0.00,,---,0.00,VWS V14.01,2013-05-27 06:01:00,
2013-05-27 02:06:00,48.3,44.3,30.28,West,267,0.0,3.0,86,0.00,,---,0.00,VWS V14.01,2013-05-27 06:06:00,
2013-05-27 02:11:00,48.1,44.4,30.28,West,267,2.0,3.0,87,0.00,,---,0.00,VWS V14.01,2013-05-27 06:11:00,
2013-05-27 02:16:00,47.9,44.2,30.28,West,267,0.0,3.0,87,0.00,,---,0.00,VWS V14.01,2013-05-27 06:16:00,
2013-05-27 02:21:00,47.7,44.0,30.28,West,267,0.0,3.0,87,0.00,,---,0.00,VWS V14.01,2013-05-27 06:21:00,
2013-05-27 02:26:00,47.7,43.7,30.28,West,267,0.0,3.0,86,0.00,,---,0.00,VWS V14.01,2013-05-27 06:26:00,
2013-05-27 02:30:00,47.8,43.8,30.28,West,267,0.0,3.0,86,0.00,,---,0.00,VWS V14.01,2013-05-27 06:30:00,
2013-05-27 02:31:00,47.8,43.8,30.28,West,267,0.0,0.0,86,0.00,,---,0.00,VWS V14.01,2013-05-27 06:31:00,
2013-05-27 02:36:00,47.8,43.8,30.28,West,267,0.0,0.0,86,0.00,,---,0.00,VWS V14.01,2013-05-27 06:36:00,
2013-05-27 02:41:00,47.8,43.8,30.28,West,267,0.0,0.0,86,0.00,,---,0.00,VWS V14.01,2013-05-27 06:41:00,
2013-05-27 02:46:00,47.7,44.0,30.28,West,267,0.0,0.0,87,0.00,,---,0.00,VWS V14.01,2013-05-27 06:46:00,
2013-05-27 02:51:00,47.7,44.0,30.28,West,267,0.0,0.0,87,0.00,,---,0.00,VWS V14.01,2013-05-27 06:51:00,
2013-05-27 02:56:00,47.7,44.0,30.28,West,267,1.0,3.0,87,0.00,,---,0.00,VWS V14.01,2013-05-27 06:56:00,
2013-05-27 03:00:00,47.7,44.0,30.28,West,267,2.0,3.0,87,0.00,,---,0.00,VWS V14.01,2013-05-27 07:00:00,
2013-05-27 03:01:00,47.7,43.7,30.28,West,267,2.0,3.0,86,0.00,,---,0.00,VWS V14.01,2013-05-27 07:01:00,
2013-05-27 03:06:00,47.9,43.6,30.28,West,267,1.0,3.0,85,0.00,,---,0.00,VWS V14.01,2013-05-27 07:06:00,
2013-05-27 03:11:00,48.3,43.4,30.28,West,267,0.0,3.0,83,0.00,,---,0.00,VWS V14.01,2013-05-27 07:11:00,
2013-05-27 03:16:00,49.0,42.1,30.28,West,267,0.0,3.0,77,0.00,,---,0.00,VWS V14.01,2013-05-27 07:16:00,
2013-05-27 03:21:00,49.6,43.7,30.28,West,267,0.0,3.0,80,0.00,,---,0.00,VWS V14.01,2013-05-27 07:21:00,
2013-05-27 03:26:00,50.0,44.4,30.28,West,267,0.0,3.0,81,0.00,,---,0.00,VWS V14.01,2013-05-27 07:26:00,
2013-05-27 03:30:00,50.1,45.2,30.28,West,267,0.0,3.0,83,0.00,,---,0.00,VWS V14.01,2013-05-27 07:30:00,
2013-05-27 03:31:00,50.0,44.4,30.28,West,267,0.0,0.0,81,0.00,,---,0.00,VWS V14.01,2013-05-27 07:31:00,
2013-05-27 03:36:00,49.8,44.2,30.28,West,267,0.0,0.0,81,0.00,,---,0.00,VWS V14.01,2013-05-27 07:36:00,
2013-05-27 03:41:00,49.7,44.4,30.28,West,267,0.0,0.0,82,0.00,,---,0.00,VWS V14.01,2013-05-27 07:41:00,
2013-05-27 03:46:00,49.5,44.6,30.28,West,267,0.0,0.0,83,0.00,,---,0.00,VWS V14.01,2013-05-27 07:46:00,
2013-05-27 03:51:00,49.4,44.5,30.28,West,267,0.0,0.0,83,0.00,,---,0.00,VWS V14.01,2013-05-27 07:51:00,
2013-05-27 03:56:00,49.4,44.8,30.28,West,267,0.0,0.0,84,0.00,,---,0.00,VWS V14.01,2013-05-27 07:56:00,
2013-05-27 04:00:00,49.4,45.4,30.28,West,267,0.0,0.0,86,0.00,,---,0.00,VWS V14.01,2013-05-27 08:00:00,
2013-05-27 04:01:00,49.4,45.4,30.28,West,267,0.0,0.0,86,0.00,,---,0.00,VWS V14.01,2013-05-27 08:01:00,
2013-05-27 04:06:00,49.2,45.2,30.28,West,267,0.0,0.0,86,0.00,,---,0.00,VWS V14.01,2013-05-27 08:06:00,
2013-05-27 04:11:00,49.1,44.8,30.28,West,267,1.0,3.0,85,0.00,,---,0.00,VWS V14.01,2013-05-27 08:11:00,
2013-05-27 04:16:00,49.3,45.0,30.28,West,267,0.0,3.0,85,0.00,,---,0.00,VWS V14.01,2013-05-27 08:16:00,
2013-05-27 04:21:00,49.5,45.5,30.28,West,267,0.0,3.0,86,0.00,,---,0.00,VWS V14.01,2013-05-27 08:21:00,
2013-05-27 04:26:00,49.5,45.5,30.28,West,267,0.0,3.0,86,0.00,,---,0.00,VWS V14.01,2013-05-27 08:26:00,
2013-05-27 04:30:00,49.6,45.9,30.28,West,267,0.0,3.0,87,0.00,,---,0.00,VWS V14.01,2013-05-27 08:30:00,
2013-05-27 04:31:00,49.6,46.2,30.28,West,267,0.0,0.0,88,0.00,,---,0.00,VWS V14.01,2013-05-27 08:31:00,
2013-05-27 04:36:00,49.7,46.0,30.28,West,267,0.0,0.0,87,0.00,,---,0.00,VWS V14.01,2013-05-27 08:36:00,
2013-05-27 04:41:00,49.7,46.3,30.28,West,267,0.0,0.0,88,0.00,,---,0.00,VWS V14.01,2013-05-27 08:41:00,
2013-05-27 04:46:00,49.8,46.7,30.28,West,267,0.0,0.0,89,0.00,,---,0.00,VWS V14.01,2013-05-27 08:46:00,
2013-05-27 04:51:00,49.8,46.1,30.29,West,267,0.0,0.0,87,0.00,,---,0.00,VWS V14.01,2013-05-27 08:51:00,
2013-05-27 04:56:00,49.8,45.2,30.28,West,267,0.0,0.0,84,0.00,,---,0.00,VWS V14.01,2013-05-27 08:56:00,
2013-05-27 05:00:00,49.8,45.5,30.28,West,267,0.0,0.0,85,0.00,,---,0.00,VWS V14.01,2013-05-27 09:00:00,
2013-05-27 05:01:00,49.9,44.6,30.29,West,267,0.0,0.0,82,0.00,,---,0.00,VWS V14.01,2013-05-27 09:01:00,
2013-05-27 05:06:00,50.1,45.5,30.29,West,267,0.0,0.0,84,0.00,,---,0.00,VWS V14.01,2013-05-27 09:06:00,
2013-05-27 05:11:00,50.3,45.7,30.29,West,267,0.0,0.0,84,0.00,,---,0.00,VWS V14.01,2013-05-27 09:11:00,
2013-05-27 05:16:00,50.4,46.1,30.30,West,267,0.0,0.0,85,0.00,,---,0.00,VWS V14.01,2013-05-27 09:16:00,
2013-05-27 05:21:00,50.4,46.1,30.30,West,267,0.0,0.0,85,0.00,,---,0.00,VWS V14.01,2013-05-27 09:21:00,
2013-05-27 05:26:00,50.4,46.1,30.30,West,267,0.0,0.0,85,0.00,,---,0.00,VWS V14.01,2013-05-27 09:26:00,
2013-05-27 05:30:00,50.4,46.1,30.30,West,267,0.0,0.0,85,0.00,,---,0.00,VWS V14.01,2013-05-27 09:30:00,
2013-05-27 05:31:00,50.4,46.1,30.30,West,267,0.0,0.0,85,0.00,,---,0.00,VWS V14.01,2013-05-27 09:31:00,
2013-05-27 05:36:00,50.4,46.4,30.30,West,267,0.0,0.0,86,0.00,,---,0.00,VWS V14.01,2013-05-27 09:36:00,
2013-05-27 05:41:00,50.3,45.7,30.30,NNW,331,0.0,0.0,84,0.00,,---,0.00,VWS V14.01,2013-05-27 09:41:00,
2013-05-27 05:46:00,50.1,46.1,30.31,West,278,0.0,0.0,86,0.00,,---,0.00,VWS V14.01,2013-05-27 09:46:00,
2013-05-27 05:51:00,49.8,46.1,30.31,West,278,0.0,0.0,87,0.00,,---,0.00,VWS V14.01,2013-05-27 09:51:00,
2013-05-27 05:56:00,49.6,45.9,30.30,West,278,0.0,0.0,87,0.00,,---,0.00,VWS V14.01,2013-05-27 09:56:00,
2013-05-27 06:00:00,49.5,46.1,30.31,West,278,0.0,0.0,88,0.00,,---,0.00,VWS V14.01,2013-05-27 10:00:00,
2013-05-27 06:01:00,49.4,46.0,30.31,West,278,0.0,0.0,88,0.00,,---,0.00,VWS V14.01,2013-05-27 10:01:00,
2013-05-27 06:06:00,49.2,45.8,30.31,West,278,0.0,0.0,88,0.00,,---,0.00,VWS V14.01,2013-05-27 10:06:00,
2013-05-27 06:11:00,48.9,45.5,30.31,West,278,1.0,3.0,88,0.00,,---,0.00,VWS V14.01,2013-05-27 10:11:00,
2013-05-27 06:16:00,48.7,44.7,30.31,WNW,286,2.0,5.0,86,0.00,,---,0.00,VWS V14.01,2013-05-27 10:16:00,
2013-05-27 06:21:00,48.7,44.7,30.31,WNW,286,3.0,5.0,86,0.00,,---,0.00,VWS V14.01,2013-05-27 10:21:00,
2013-05-27 06:26:00,48.8,44.2,30.31,WNW,286,0.0,5.0,84,0.00,,---,0.00,VWS V14.01,2013-05-27 10:26:00,
2013-05-27 06:30:00,49.0,44.7,30.31,WNW,286,0.0,5.0,85,0.00,,---,0.00,VWS V14.01,2013-05-27 10:30:00,
2013-05-27 06:31:00,49.0,44.4,30.31,WNW,286,0.0,0.0,84,0.00,,---,0.00,VWS V14.01,2013-05-27 10:31:00,
2013-05-27 06:36:00,49.2,44.0,30.31,WNW,286,0.0,0.0,82,0.00,,---,0.00,VWS V14.01,2013-05-27 10:36:00,
2013-05-27 06:41:00,49.4,45.4,30.31,WNW,286,0.0,0.0,86,0.00,,---,0.00,VWS V14.01,2013-05-27 10:41:00,
2013-05-27 06:46:00,49.4,45.1,30.32,WNW,286,0.0,0.0,85,0.00,,---,0.00,VWS V14.01,2013-05-27 10:46:00,
2013-05-27 06:51:00,49.4,45.1,30.32,WNW,286,0.0,0.0,85,0.00,,---,0.00,VWS V14.01,2013-05-27 10:51:00,
2013-05-27 06:56:00,49.3,45.3,30.32,WNW,286,0.0,0.0,86,0.00,,---,0.00,VWS V14.01,2013-05-27 10:56:00,
2013-05-27 07:00:00,49.4,45.7,30.32,WNW,286,0.0,0.0,87,0.00,,---,0.00,VWS V14.01,2013-05-27 11:00:00,
2013-05-27 07:01:00,49.4,45.4,30.32,WNW,286,0.0,0.0,86,0.00,,---,0.00,VWS V14.01,2013-05-27 11:01:00,
2013-05-27 07:06:00,49.5,45.8,30.32,WNW,286,0.0,3.0,87,0.00,,---,0.00,VWS V14.01,2013-05-27 11:06:00,
2013-05-27 07:11:00,49.7,46.0,30.32,WNW,286,0.0,3.0,87,0.00,,---,0.00,VWS V14.01,2013-05-27 11:11:00,
2013-05-27 07:16:00,50.0,46.0,30.32,WNW,286,0.0,3.0,86,0.00,,---,0.00,VWS V14.01,2013-05-27 11:16:00,
2013-05-27 07:21:00,50.3,46.6,30.32,WNW,286,0.0,3.0,87,0.00,,---,0.00,VWS V14.01,2013-05-27 11:21:00,
2013-05-27 07:26:00,50.7,46.4,30.32,WNW,286,0.0,3.0,85,0.00,,---,0.00,VWS V14.01,2013-05-27 11:26:00,
2013-05-27 07:30:00,51.0,47.6,30.33,WNW,286,0.0,3.0,88,0.00,,---,0.00,VWS V14.01,2013-05-27 11:30:00,
2013-05-27 07:31:00,51.2,47.5,30.33,WNW,286,0.0,0.0,87,0.00,,---,0.00,VWS V14.01,2013-05-27 11:31:00,
2013-05-27 07:36:00,51.5,48.1,30.33,WNW,286,0.0,0.0,88,0.00,,---,0.00,VWS V14.01,2013-05-27 11:36:00,
2013-05-27 07:41:00,51.9,48.5,30.33,WNW,286,0.0,0.0,88,0.00,,---,0.00,VWS V14.01,2013-05-27 11:41:00,
2013-05-27 07:46:00,52.2,48.8,30.33,WNW,286,0.0,0.0,88,0.00,,---,0.00,VWS V14.01,2013-05-27 11:46:00,
2013-05-27 07:51:00,52.7,48.6,30.33,WNW,286,3.0,3.0,86,0.00,,---,0.00,VWS V14.01,2013-05-27 11:51:00,
2013-05-27 07:56:00,53.4,48.4,30.33,WNW,286,0.0,3.0,83,0.00,,---,0.00,VWS V14.01,2013-05-27 11:56:00,
2013-05-27 08:00:00,53.8,48.8,30.33,WNW,286,1.0,3.0,83,0.00,,---,0.00,VWS V14.01,2013-05-27 12:00:00,
2013-05-27 08:01:00,54.1,48.7,30.33,WNW,286,0.0,2.0,82,0.00,,---,0.00,VWS V14.01,2013-05-27 12:01:00,
2013-05-27 08:06:00,54.7,49.0,30.33,WNW,286,0.0,2.0,81,0.00,,---,0.00,VWS V14.01,2013-05-27 12:06:00,
2013-05-27 08:11:00,55.2,48.8,30.33,WNW,286,0.0,2.0,79,0.00,,---,0.00,VWS V14.01,2013-05-27 12:11:00,
2013-05-27 08:16:00,55.7,50.3,30.33,WNW,286,0.0,2.0,82,0.00,,---,0.00,VWS V14.01,2013-05-27 12:16:00,
2013-05-27 08:21:00,56.2,49.1,30.33,WNW,286,0.0,2.0,77,0.00,,---,0.00,VWS V14.01,2013-05-27 12:21:00,
2013-05-27 08:26:00,56.8,47.9,30.33,WNW,286,2.0,2.0,72,0.00,,---,0.00,VWS V14.01,2013-05-27 12:26:00,
2013-05-27 08:30:00,57.4,47.7,30.33,WNW,286,0.0,2.0,70,0.00,,---,0.00,VWS V14.01,2013-05-27 12:30:00,
2013-05-27 08:31:00,57.7,49.5,30.33,WNW,286,0.0,0.0,74,0.00,,---,0.00,VWS V14.01,2013-05-27 12:31:00,
2013-05-27 08:36:00,58.5,48.0,30.33,WNW,286,0.0,0.0,68,0.00,,---,0.00,VWS V14.01,2013-05-27 12:36:00,
2013-05-27 08:41:00,59.2,48.3,30.33,WNW,286,0.0,0.0,67,0.00,,---,0.00,VWS V14.01,2013-05-27 12:41:00,
2013-05-27 08:46:00,59.9,47.7,30.33,WNW,286,0.0,0.0,64,0.00,,---,0.00,VWS V14.01,2013-05-27 12:46:00,
2013-05-27 08:51:00,60.8,46.8,30.33,WNW,286,0.0,1.0,60,0.00,,---,0.00,VWS V14.01,2013-05-27 12:51:00,
2013-05-27 08:56:00,61.8,46.0,30.33,WNW,286,0.0,1.0,56,0.00,,---,0.00,VWS V14.01,2013-05-27 12:56:00,
2013-05-27 09:00:00,62.4,44.0,30.33,NE,44,2.0,4.0,51,0.00,,---,0.00,VWS V14.01,2013-05-27 13:00:00,
2013-05-27 09:01:00,62.6,43.7,30.33,ENE,67,0.0,5.0,50,0.00,,---,0.00,VWS V14.01,2013-05-27 13:01:00,
2013-05-27 09:06:00,62.7,41.6,30.33,ENE,65,2.0,8.0,46,0.00,,---,0.00,VWS V14.01,2013-05-27 13:06:00,
2013-05-27 09:11:00,63.0,44.1,30.33,ENE,66,2.0,8.0,50,0.00,,---,0.00,VWS V14.01,2013-05-27 13:11:00,
2013-05-27 09:16:00,63.6,46.2,30.33,NE,53,3.0,8.0,53,0.00,,---,0.00,VWS V14.01,2013-05-27 13:16:00,
2013-05-27 09:21:00,63.8,44.3,30.33,SE,125,0.0,8.0,49,0.00,,---,0.00,VWS V14.01,2013-05-27 13:21:00,
2013-05-27 09:26:00,63.6,42.5,30.33,SE,127,0.0,8.0,46,0.00,,---,0.00,VWS V14.01,2013-05-27 13:26:00,
2013-05-27 09:30:00,63.5,41.2,30.33,East,92,2.0,8.0,44,0.00,,---,0.00,VWS V14.01,2013-05-27 13:30:00,
2013-05-27 09:31:00,63.5,41.8,30.33,ESE,118,1.0,4.0,45,0.00,,---,0.00,VWS V14.01,2013-05-27 13:31:00,
2013-05-27 09:36:00,63.7,42.0,30.33,East,92,4.0,5.0,45,0.00,,---,0.00,VWS V14.01,2013-05-27 13:36:00,
2013-05-27 09:41:00,63.7,43.7,30.33,East,96,4.0,5.0,48,0.00,,---,0.00,VWS V14.01,2013-05-27 13:41:00,
2013-05-27 09:46:00,63.4,42.3,30.33,SE,144,0.0,5.0,46,0.00,,---,0.00,VWS V14.01,2013-05-27 13:46:00,
2013-05-27 09:51:00,63.4,43.9,30.33,SE,140,0.0,5.0,49,0.00,,---,0.00,VWS V14.01,2013-05-27 13:51:00,
2013-05-27 09:56:00,63.3,42.8,30.33,SE,136,0.0,5.0,47,0.00,,---,0.00,VWS V14.01,2013-05-27 13:56:00,
2013-05-27 10:00:00,63.4,45.0,30.33,NE,42,1.0,5.0,51,0.00,,---,0.00,VWS V14.01,2013-05-27 14:00:00,
2013-05-27 10:01:00,63.3,43.3,30.33,NE,49,0.0,5.0,48,0.00,,---,0.00,VWS V14.01,2013-05-27 14:01:00,
2013-05-27 10:06:00,63.3,45.4,30.33,NE,51,0.0,5.0,52,0.00,,---,0.00,VWS V14.01,2013-05-27 14:06:00,
2013-05-27 10:11:00,63.2,44.3,30.33,SE,125,0.0,5.0,50,0.00,,---,0.00,VWS V14.01,2013-05-27 14:11:00,
2013-05-27 10:16:00,63.3,44.4,30.33,SE,125,0.0,5.0,50,0.00,,---,0.00,VWS V14.01,2013-05-27 14:16:00,
2013-05-27 10:21:00,63.4,44.5,30.33,SE,126,0.0,5.0,50,0.00,,---,0.00,VWS V14.01,2013-05-27 14:21:00,
2013-05-27 10:25:00,63.6,44.1,30.33,SE,144,0.0,5.0,49,0.00,,---,0.00,VWS V14.01,2013-05-27 14:25:00,
2013-05-27 10:30:00,63.6,42.5,30.33,SSE,161,0.0,0.0,46,0.00,,---,0.00,VWS V14.01,2013-05-27 14:30:00,
2013-05-27 10:35:00,63.7,43.1,30.33,SSE,160,0.0,0.0,47,0.00,,---,0.00,VWS V14.01,2013-05-27 14:35:00,
2013-05-27 10:40:00,64.0,48.0,30.33,SSE,160,0.0,0.0,56,0.00,,---,0.00,VWS V14.01,2013-05-27 14:40:00,
2013-05-27 10:46:00,64.2,43.6,30.33,SSE,160,0.0,0.0,47,0.00,,---,0.00,VWS V14.01,2013-05-27 14:46:00,
2013-05-27 10:50:00,64.4,44.8,30.33,SSE,160,0.0,0.0,49,0.00,,---,0.00,VWS V14.01,2013-05-27 14:50:00,
2013-05-27 10:55:00,64.4,45.9,30.33,SSE,160,0.0,0.0,51,0.00,,---,0.00,VWS V14.01,2013-05-27 14:55:00,
2013-05-27 11:00:00,64.2,44.7,30.33,SSE,160,0.0,0.0,49,0.00,,---,0.00,VWS V14.01,2013-05-27 15:00:00,
2013-05-27 11:05:00,63.9,44.9,30.32,SSE,160,0.0,0.0,50,0.00,,---,0.00,VWS V14.01,2013-05-27 15:05:00,
2013-05-27 11:10:00,63.8,43.8,30.32,SSE,160,0.0,0.0,48,0.00,,---,0.00,VWS V14.01,2013-05-27 15:10:00,
2013-05-27 11:15:00,63.8,44.8,30.32,SSE,160,0.0,0.0,50,0.00,,---,0.00,VWS V14.01,2013-05-27 15:15:00,
2013-05-27 11:20:00,63.9,46.5,30.32,SSE,160,0.0,0.0,53,0.00,,---,0.00,VWS V14.01,2013-05-27 15:20:00,
2013-05-27 11:25:00,64.1,46.6,30.32,SSE,160,0.0,0.0,53,0.00,,---,0.00,VWS V14.01,2013-05-27 15:25:00,
2013-05-27 11:30:00,64.2,46.7,30.32,SSE,160,0.0,0.0,53,0.00,,---,0.00,VWS V14.01,2013-05-27 15:30:00,
2013-05-27 11:35:00,64.4,45.4,30.32,SSE,160,0.0,0.0,50,0.00,,---,0.00,VWS V14.01,2013-05-27 15:35:00,
2013-05-27 11:40:00,64.6,48.1,30.32,SSE,160,0.0,0.0,55,0.00,,---,0.00,VWS V14.01,2013-05-27 15:40:00,
2013-05-27 11:45:00,64.6,45.6,30.32,SSE,160,0.0,0.0,50,0.00,,---,0.00,VWS V14.01,2013-05-27 15:45:00,
2013-05-27 11:50:00,64.5,46.0,30.32,South,188,0.0,0.0,51,0.00,,---,0.00,VWS V14.01,2013-05-27 15:50:00,
2013-05-27 11:55:00,64.7,46.2,30.32,South,188,0.0,0.0,51,0.00,,---,0.00,VWS V14.01,2013-05-27 15:55:00,
2013-05-27 12:00:00,65.0,48.0,30.32,South,188,0.0,0.0,54,0.00,,---,0.00,VWS V14.01,2013-05-27 16:00:00,
2013-05-27 12:05:00,65.6,48.5,30.32,South,188,0.0,0.0,54,0.00,,---,0.00,VWS V14.01,2013-05-27 16:05:00,
2013-05-27 12:10:00,66.2,49.1,30.32,South,188,0.0,0.0,54,0.00,,---,0.00,VWS V14.01,2013-05-27 16:10:00,
2013-05-27 12:15:00,66.8,47.0,30.32,NE,56,0.0,5.0,49,0.00,,---,0.00,VWS V14.01,2013-05-27 16:15:00,
2013-05-27 12:20:00,66.9,46.0,30.32,NE,56,0.0,5.0,47,0.00,,---,0.00,VWS V14.01,2013-05-27 16:20:00,
2013-05-27 12:25:00,67.1,47.3,30.32,ENE,64,0.0,5.0,49,0.00,,---,0.00,VWS V14.01,2013-05-27 16:25:00,
2013-05-27 12:30:00,67.2,49.5,30.31,SE,131,0.0,0.0,53,0.00,,---,0.00,VWS V14.01,2013-05-27 16:30:00,
2013-05-27 12:35:00,67.3,47.5,30.31,SE,131,0.0,1.0,49,0.00,,---,0.00,VWS V14.01,2013-05-27 16:35:00,
2013-05-27 12:40:00,67.2,48.5,30.31,SE,131,0.0,1.0,51,0.00,,---,0.00,VWS V14.01,2013-05-27 16:40:00,
2013-05-27 12:45:00,67.3,47.0,30.31,SE,131,0.0,2.0,48,0.00,,---,0.00,VWS V14.01,2013-05-27 16:45:00,
2013-05-27 12:50:00,67.3,46.4,30.31,SE,136,0.0,4.0,47,0.00,,---,0.00,VWS V14.01,2013-05-27 16:50:00,
2013-05-27 12:55:00,67.4,50.7,30.31,SE,136,0.0,4.0,55,0.00,,---,0.00,VWS V14.01,2013-05-27 16:55:00,
2013-05-27 13:00:00,67.6,48.3,30.31,SE,136,0.0,0.0,50,0.00,,---,0.00,VWS V14.01,2013-05-27 17:00:00,
2013-05-27 13:05:00,67.7,46.2,30.30,South,178,0.0,5.0,46,0.00,,---,0.00,VWS V14.01,2013-05-27 17:05:00,
2013-05-27 13:10:00,67.7,46.2,30.30,SSE,150,0.0,5.0,46,0.00,,---,0.00,VWS V14.01,2013-05-27 17:10:00,
2013-05-27 13:15:00,67.9,47.5,30.30,SSW,200,0.0,5.0,48,0.00,,---,0.00,VWS V14.01,2013-05-27 17:15:00,
2013-05-27 13:20:00,68.2,48.3,30.30,South,190,0.0,5.0,49,0.00,,---,0.00,VWS V14.01,2013-05-27 17:20:00,
2013-05-27 13:25:00,68.6,48.7,30.30,South,190,0.0,5.0,49,0.00,,---,0.00,VWS V14.01,2013-05-27 17:25:00,
2013-05-27 13:30:00,69.0,49.1,30.29,South,190,0.0,1.0,49,0.00,,---,0.00,VWS V14.01,2013-05-27 17:30:00,
2013-05-27 13:35:00,68.8,48.9,30.29,SE,136,0.0,7.0,49,0.00,,---,0.00,VWS V14.01,2013-05-27 17:35:00,
2013-05-27 13:40:00,68.6,50.3,30.29,SE,136,0.0,7.0,52,0.00,,---,0.00,VWS V14.01,2013-05-27 17:40:00,
2013-05-27 13:45:00,68.6,49.8,30.29,SW,234,0.0,7.0,51,0.00,,---,0.00,VWS V14.01,2013-05-27 17:45:00,
2013-05-27 13:50:00,68.9,51.6,30.29,SW,234,0.0,7.0,54,0.00,,---,0.00,VWS V14.01,2013-05-27 17:50:00,
2013-05-27 13:55:00,69.1,52.3,30.28,SW,229,0.0,7.0,55,0.00,,---,0.00,VWS V14.01,2013-05-27 17:55:00,
2013-05-27 14:00:00,69.3,50.9,30.28,SW,229,0.0,0.0,52,0.00,,---,0.00,VWS V14.01,2013-05-27 18:00:00,
2013-05-27 14:05:00,69.6,51.7,30.28,SW,229,1.0,1.0,53,0.00,,---,0.00,VWS V14.01,2013-05-27 18:05:00,
2013-05-27 14:10:00,69.7,52.3,30.28,SW,229,0.0,2.0,54,0.00,,---,0.00,VWS V14.01,2013-05-27 18:10:00,
2013-05-27 14:15:00,70.0,51.6,30.28,SW,229,0.0,2.0,52,0.00,,---,0.00,VWS V14.01,2013-05-27 18:15:00,
2013-05-27 14:20:00,70.4,52.0,30.27,SW,229,2.0,2.0,52,0.00,,---,0.00,VWS V14.01,2013-05-27 18:20:00,
2013-05-27 14:25:00,71.0,53.0,30.27,SW,232,0.0,2.0,53,0.00,,---,0.00,VWS V14.01,2013-05-27 18:25:00,
2013-05-27 14:30:00,71.0,50.9,30.27,SSE,164,0.0,6.0,49,0.00,,---,0.00,VWS V14.01,2013-05-27 18:30:00,
2013-05-27 14:35:00,70.7,51.7,30.27,SSE,164,0.0,6.0,51,0.00,,---,0.00,VWS V14.01,2013-05-27 18:35:00,
2013-05-27 14:40:00,70.8,53.3,30.26,SE,130,2.0,7.0,54,0.00,,---,0.00,VWS V14.01,2013-05-27 18:40:00,
2013-05-27 14:45:00,70.9,52.4,30.26,South,177,7.0,7.0,52,0.00,,---,0.00,VWS V14.01,2013-05-27 18:45:00,
2013-05-27 14:50:00,71.0,53.0,30.25,East,81,0.0,7.0,53,0.00,,---,0.00,VWS V14.01,2013-05-27 18:50:00,
2013-05-27 14:55:00,71.4,53.4,30.25,South,175,4.0,7.0,53,0.00,,---,0.00,VWS V14.01,2013-05-27 18:55:00,
2013-05-27 15:00:00,72.0,55.5,30.25,East,79,0.0,4.0,56,0.00,,---,0.00,VWS V14.01,2013-05-27 19:00:00,
2013-05-27 15:05:00,72.4,54.8,30.25,South,186,2.0,7.0,54,0.00,,---,0.00,VWS V14.01,2013-05-27 19:05:00,
2013-05-27 15:10:00,72.5,54.4,30.25,South,175,0.0,7.0,53,0.00,,---,0.00,VWS V14.01,2013-05-27 19:10:00,
2013-05-27 15:15:00,72.8,55.2,30.24,South,174,0.0,7.0,54,0.00,,---,0.00,VWS V14.01,2013-05-27 19:15:00,
2013-05-27 15:20:00,73.2,54.5,30.24,SSE,154,2.0,7.0,52,0.00,,---,0.00,VWS V14.01,2013-05-27 19:20:00,
2013-05-27 15:25:00,73.4,58.7,30.24,East,87,1.0,7.0,60,0.00,,---,0.00,VWS V14.01,2013-05-27 19:25:00,
2013-05-27 15:30:00,73.8,56.1,30.23,East,87,0.0,0.0,54,0.00,,---,0.00,VWS V14.01,2013-05-27 19:30:00,
2013-05-27 15:35:00,74.2,56.0,30.23,East,86,0.0,4.0,53,0.00,,---,0.00,VWS V14.01,2013-05-27 19:35:00,
2013-05-27 15:40:00,74.6,57.9,30.23,NE,34,0.0,4.0,56,0.00,,---,0.00,VWS V14.01,2013-05-27 19:40:00,
2013-05-27 15:45:00,75.3,57.5,30.23,SW,235,0.0,5.0,54,0.00,,---,0.00,VWS V14.01,2013-05-27 19:45:00,
2013-05-27 15:50:00,75.8,56.9,30.23,South,188,0.0,6.0,52,0.00,,---,0.00,VWS V14.01,2013-05-27 19:50:00,
2013-05-27 15:55:00,76.3,59.5,30.23,SSW,192,0.0,9.0,56,0.00,,---,0.00,VWS V14.01,2013-05-27 19:55:00,
2013-05-27 16:00:00,76.7,58.8,30.22,South,187,3.0,7.0,54,0.00,,---,0.00,VWS V14.01,2013-05-27 20:00:00,
2013-05-27 16:05:00,76.6,58.2,30.22,East,96,1.0,7.0,53,0.00,,---,0.00,VWS V14.01,2013-05-27 20:05:00,
2013-05-27 16:10:00,76.8,58.9,30.22,SSE,163,4.0,7.0,54,0.00,,---,0.00,VWS V14.01,2013-05-27 20:10:00,
2013-05-27 16:15:00,77.0,58.6,30.22,South,184,5.0,7.0,53,0.00,,---,0.00,VWS V14.01,2013-05-27 20:15:00,
2013-05-27 16:20:00,76.8,59.9,30.22,South,184,2.0,7.0,56,0.00,,---,0.00,VWS V14.01,2013-05-27 20:20:00,
2013-05-27 16:25:00,77.0,60.1,30.22,SSW,208,0.0,7.0,56,0.00,,---,0.00,VWS V14.01,2013-05-27 20:25:00,
2013-05-27 16:30:00,77.1,57.6,30.22,SSE,151,0.0,6.0,51,0.00,,---,0.00,VWS V14.01,2013-05-27 20:30:00,
2013-05-27 16:35:00,77.0,59.1,30.22,South,179,1.0,8.0,54,0.00,,---,0.00,VWS V14.01,2013-05-27 20:35:00,
2013-05-27 16:40:00,77.3,61.4,30.22,West,280,2.0,9.0,58,0.00,,---,0.00,VWS V14.01,2013-05-27 20:40:00,
2013-05-27 16:45:00,77.8,60.4,30.21,SSW,207,0.0,9.0,55,0.00,,---,0.00,VWS V14.01,2013-05-27 20:45:00,
2013-05-27 16:50:00,78.2,61.2,30.21,WNW,286,1.0,9.0,56,0.00,,---,0.00,VWS V14.01,2013-05-27 20:50:00,
2013-05-27 16:55:00,78.4,60.4,30.21,SSW,196,0.0,9.0,54,0.00,,---,0.00,VWS V14.01,2013-05-27 20:55:00,
2013-05-27 17:00:00,78.7,61.7,30.20,SSW,192,0.0,0.0,56,0.00,,---,0.00,VWS V14.01,2013-05-27 21:00:00,
2013-05-27 17:05:00,78.5,60.0,30.20,South,177,5.0,6.0,53,0.00,,---,0.00,VWS V14.01,2013-05-27 21:05:00,
2013-05-27 17:10:00,78.1,58.5,30.20,SW,227,0.0,9.0,51,0.00,,---,0.00,VWS V14.01,2013-05-27 21:10:00,
2013-05-27 17:15:00,77.4,58.4,30.20,South,188,2.0,11.0,52,0.00,,---,0.00,VWS V14.01,2013-05-27 21:15:00,
2013-05-27 17:20:00,76.5,58.6,30.20,South,183,2.0,11.0,54,0.00,,---,0.00,VWS V14.01,2013-05-27 21:20:00,
2013-05-27 17:25:00,75.9,58.6,30.20,SE,141,0.0,11.0,55,0.00,,---,0.00,VWS V14.01,2013-05-27 21:25:00,
2013-05-27 17:30:00,75.5,59.2,30.20,South,178,0.0,1.0,57,0.00,,---,0.00,VWS V14.01,2013-05-27 21:30:00,
2013-05-27 17:35:00,75.3,58.5,30.21,South,178,0.0,2.0,56,0.00,,---,0.00,VWS V14.01,2013-05-27 21:35:00,
2013-05-27 17:40:00,75.1,59.3,30.21,South,178,0.0,2.0,58,0.00,,---,0.00,VWS V14.01,2013-05-27 21:40:00,
2013-05-27 17:45:00,75.0,58.8,30.21,SW,215,2.0,6.0,57,0.00,,---,0.00,VWS V14.01,2013-05-27 21:45:00,
2013-05-27 17:50:00,74.9,58.7,30.21,South,188,0.0,6.0,57,0.00,,---,0.00,VWS V14.01,2013-05-27 21:50:00,
2013-05-27 17:55:00,74.8,59.5,30.21,ESE,117,0.0,6.0,59,0.00,,---,0.00,VWS V14.01,2013-05-27 21:55:00,
2013-05-27 18:00:00,74.8,59.5,30.21,South,183,0.0,2.0,59,0.00,,---,0.00,VWS V14.01,2013-05-27 22:00:00,
2013-05-27 18:05:00,74.8,59.5,30.21,South,180,0.0,8.0,59,0.00,,---,0.00,VWS V14.01,2013-05-27 22:05:00,
2013-05-27 18:10:00,74.9,59.6,30.21,South,185,4.0,8.0,59,0.00,,---,0.00,VWS V14.01,2013-05-27 22:10:00,
2013-05-27 18:15:00,74.9,60.1,30.21,SSE,165,1.0,8.0,60,0.00,,---,0.00,VWS V14.01,2013-05-27 22:15:00,
2013-05-27 18:20:00,75.0,60.7,30.20,SSE,167,0.0,8.0,61,0.00,,---,0.00,VWS V14.01,2013-05-27 22:20:00,
2013-05-27 18:25:00,75.2,60.8,30.20,SSE,163,0.0,8.0,61,0.00,,---,0.00,VWS V14.01,2013-05-27 22:25:00,
2013-05-27 18:30:00,75.3,60.0,30.20,SSE,163,2.0,2.0,59,0.00,,---,0.00,VWS V14.01,2013-05-27 22:30:00,
2013-05-27 18:35:00,75.5,60.2,30.19,South,173,1.0,6.0,59,0.00,,---,0.00,VWS V14.01,2013-05-27 22:35:00,
2013-05-27 18:40:00,75.5,59.7,30.19,South,169,4.0,8.0,58,0.00,,---,0.00,VWS V14.01,2013-05-27 22:40:00,
2013-05-27 18:45:00,75.4,59.6,30.19,South,182,0.0,8.0,58,0.00,,---,0.00,VWS V14.01,2013-05-27 22:45:00,
2013-05-27 18:50:00,75.4,61.0,30.19,South,184,0.0,8.0,61,0.00,,---,0.00,VWS V14.01,2013-05-27 22:50:00,
2013-05-27 18:55:00,75.4,60.1,30.19,South,190,0.0,8.0,59,0.00,,---,0.00,VWS V14.01,2013-05-27 22:55:00,
2013-05-27 19:00:00,75.4,60.1,30.19,South,189,0.0,0.0,59,0.00,,---,0.00,VWS V14.01,2013-05-27 23:00:00,
2013-05-27 19:05:00,75.5,60.2,30.19,South,190,0.0,3.0,59,0.00,,---,0.00,VWS V14.01,2013-05-27 23:05:00,
2013-05-27 19:10:00,75.4,59.6,30.19,South,175,0.0,6.0,58,0.00,,---,0.00,VWS V14.01,2013-05-27 23:10:00,
2013-05-27 19:15:00,75.3,60.5,30.19,South,175,0.0,6.0,60,0.00,,---,0.00,VWS V14.01,2013-05-27 23:15:00,
2013-05-27 19:20:00,75.2,60.4,30.19,South,173,0.0,6.0,60,0.00,,---,0.00,VWS V14.01,2013-05-27 23:20:00,
2013-05-27 19:25:00,75.1,60.3,30.19,South,173,0.0,6.0,60,0.00,,---,0.00,VWS V14.01,2013-05-27 23:25:00,
2013-05-27 19:30:00,74.8,59.5,30.18,South,173,0.0,2.0,59,0.00,,---,0.00,VWS V14.01,2013-05-27 23:30:00,
2013-05-27 19:35:00,74.6,60.7,30.18,South,173,0.0,2.0,62,0.00,,---,0.00,VWS V14.01,2013-05-27 23:35:00,
2013-05-27 19:40:00,74.4,60.1,30.18,South,173,0.0,2.0,61,0.00,,---,0.00,VWS V14.01,2013-05-27 23:40:00,
2013-05-27 19:45:00,74.2,60.4,30.19,South,173,0.0,2.0,62,0.00,,---,0.00,VWS V14.01,2013-05-27 23:45:00,
2013-05-27 19:50:00,73.9,59.6,30.19,South,173,0.0,2.0,61,0.00,,---,0.00,VWS V14.01,2013-05-27 23:50:00,
2013-05-27 19:55:00,73.7,59.4,30.18,South,173,0.0,2.0,61,0.00,,---,0.00,VWS V14.01,2013-05-27 23:55:00,
2013-05-27 20:00:00,73.3,59.5,30.18,South,173,0.0,0.0,62,0.00,,---,0.00,VWS V14.01,2013-05-28 00:00:00,
2013-05-27 20:05:00,73.0,59.7,30.18,South,173,0.0,0.0,63,0.00,,---,0.00,VWS V14.01,2013-05-28 00:05:00,
2013-05-27 20:10:00,72.7,59.4,30.19,South,173,0.0,0.0,63,0.00,,---,0.00,VWS V14.01,2013-05-28 00:10:00,
2013-05-27 20:15:00,72.4,59.1,30.19,South,173,0.0,0.0,63,0.00,,---,0.00,VWS V14.01,2013-05-28 00:15:00,
2013-05-27 20:20:00,72.1,59.3,30.19,South,173,0.0,0.0,64,0.00,,---,0.00,VWS V14.01,2013-05-28 00:20:00,
2013-05-27 20:25:00,71.8,59.4,30.19,South,173,0.0,0.0,65,0.00,,---,0.00,VWS V14.01,2013-05-28 00:25:00,
2013-05-27 20:30:00,71.4,59.5,30.19,South,173,0.0,0.0,66,0.00,,---,0.00,VWS V14.01,2013-05-28 00:30:00,
2013-05-27 20:35:00,71.1,59.6,30.19,South,173,0.0,0.0,67,0.00,,---,0.00,VWS V14.01,2013-05-28 00:35:00,
2013-05-27 20:40:00,70.7,59.6,30.19,South,173,0.0,0.0,68,0.00,,---,0.00,VWS V14.01,2013-05-28 00:40:00,
2013-05-27 20:45:00,70.4,59.3,30.19,South,173,0.0,0.0,68,0.00,,---,0.00,VWS V14.01,2013-05-28 00:45:00,
2013-05-27 20:50:00,70.1,59.9,30.20,South,173,0.0,0.0,70,0.00,,---,0.00,VWS V14.01,2013-05-28 00:50:00,
2013-05-27 20:55:00,69.8,60.0,30.20,South,173,0.0,0.0,71,0.00,,---,0.00,VWS V14.01,2013-05-28 00:55:00,
2013-05-27 21:00:00,69.5,59.7,30.20,South,173,0.0,0.0,71,0.00,,---,0.00,VWS V14.01,2013-05-28 01:00:00,
2013-05-27 21:05:00,69.1,59.7,30.20,South,173,0.0,0.0,72,0.00,,---,0.00,VWS V14.01,2013-05-28 01:05:00,
2013-05-27 21:10:00,68.8,60.6,30.20,South,173,0.0,0.0,75,0.00,,---,0.00,VWS V14.01,2013-05-28 01:10:00,
2013-05-27 21:15:00,68.5,61.0,30.20,South,173,0.0,0.0,77,0.00,,---,0.00,VWS V14.01,2013-05-28 01:15:00,
2013-05-27 21:20:00,68.2,61.1,30.21,South,173,0.0,1.0,78,0.00,,---,0.00,VWS V14.01,2013-05-28 01:20:00,
2013-05-27 21:25:00,67.9,61.2,30.21,South,173,0.0,1.0,79,0.00,,---,0.00,VWS V14.01,2013-05-28 01:25:00,
2013-05-27 21:30:00,67.5,60.4,30.21,South,173,0.0,0.0,78,0.00,,---,0.00,VWS V14.01,2013-05-28 01:30:00,
2013-05-27 21:35:00,67.2,60.1,30.21,South,173,0.0,0.0,78,0.00,,---,0.00,VWS V14.01,2013-05-28 01:35:00,
2013-05-27 21:40:00,67.0,60.3,30.22,South,173,0.0,0.0,79,0.00,,---,0.00,VWS V14.01,2013-05-28 01:40:00,
2013-05-27 21:45:00,66.8,60.4,30.22,South,173,0.0,0.0,80,0.00,,---,0.00,VWS V14.01,2013-05-28 01:45:00,
2013-05-27 21:50:00,66.6,59.9,30.22,South,173,0.0,0.0,79,0.00,,---,0.00,VWS V14.01,2013-05-28 01:50:00,
2013-05-27 21:55:00,66.3,59.6,30.22,South,173,0.0,0.0,79,0.00,,---,0.00,VWS V14.01,2013-05-28 01:55:00,
2013-05-27 22:00:00,66.1,60.1,30.22,South,173,0.0,0.0,81,0.00,,---,0.00,VWS V14.01,2013-05-28 02:00:00,
2013-05-27 22:05:00,65.9,59.9,30.23,South,173,0.0,0.0,81,0.00,,---,0.00,VWS V14.01,2013-05-28 02:05:00,
2013-05-27 22:10:00,65.6,59.6,30.23,South,173,0.0,0.0,81,0.00,,---,0.00,VWS V14.01,2013-05-28 02:10:00,
2013-05-27 22:15:00,65.3,59.7,30.23,South,173,0.0,0.0,82,0.00,,---,0.00,VWS V14.01,2013-05-28 02:15:00,
2013-05-27 22:20:00,65.0,59.7,30.23,South,173,0.0,0.0,83,0.00,,---,0.00,VWS V14.01,2013-05-28 02:20:00,
2013-05-27 22:25:00,64.7,59.4,30.23,South,173,0.0,0.0,83,0.00,,---,0.00,VWS V14.01,2013-05-28 02:25:00,
2013-05-27 22:30:00,64.3,59.4,30.23,South,173,0.0,0.0,84,0.00,,---,0.00,VWS V14.01,2013-05-28 02:30:00,
2013-05-27 22:35:00,64.0,59.1,30.23,SE,127,0.0,4.0,84,0.00,,---,0.00,VWS V14.01,2013-05-28 02:35:00,
2013-05-27 22:40:00,63.6,59.0,30.23,SE,127,0.0,4.0,85,0.00,,---,0.00,VWS V14.01,2013-05-28 02:40:00,
2013-05-27 22:45:00,63.3,58.7,30.24,SE,127,0.0,4.0,85,0.00,,---,0.00,VWS V14.01,2013-05-28 02:45:00,
2013-05-27 22:50:00,62.9,58.3,30.24,SE,127,0.0,4.0,85,0.00,,---,0.00,VWS V14.01,2013-05-28 02:50:00,
2013-05-27 22:55:00,62.7,58.1,30.24,SE,127,0.0,4.0,85,0.00,,---,0.00,VWS V14.01,2013-05-28 02:55:00,
2013-05-27 23:00:00,62.5,57.6,30.24,SE,127,0.0,0.0,84,0.00,,---,0.00,VWS V14.01,2013-05-28 03:00:00,
2013-05-27 23:05:00,62.4,57.5,30.23,SE,127,0.0,0.0,84,0.00,,---,0.00,VWS V14.01,2013-05-28 03:05:00,
2013-05-27 23:10:00,62.4,57.8,30.23,SE,127,0.0,0.0,85,0.00,,---,0.00,VWS V14.01,2013-05-28 03:10:00,
2013-05-27 23:15:00,62.3,57.7,30.23,SE,127,0.0,0.0,85,0.00,,---,0.00,VWS V14.01,2013-05-28 03:15:00,
2013-05-27 23:20:00,62.3,58.1,30.23,SE,127,0.0,0.0,86,0.00,,---,0.00,VWS V14.01,2013-05-28 03:20:00,
2013-05-27 23:25:00,62.2,58.0,30.23,SE,127,0.0,0.0,86,0.00,,---,0.00,VWS V14.01,2013-05-28 03:25:00,
2013-05-27 23:30:00,62.1,57.9,30.23,SE,127,0.0,0.0,86,0.00,,---,0.00,VWS V14.01,2013-05-28 03:30:00,
2013-05-27 23:35:00,61.9,57.3,30.23,SE,127,0.0,0.0,85,0.00,,---,0.00,VWS V14.01,2013-05-28 03:35:00,
2013-05-27 23:40:00,61.8,57.9,30.23,SE,127,0.0,0.0,87,0.00,,---,0.00,VWS V14.01,2013-05-28 03:40:00,
2013-05-27 23:45:00,61.7,57.8,30.23,SE,127,0.0,0.0,87,0.00,,---,0.00,VWS V14.01,2013-05-28 03:45:00,
2013-05-27 23:50:00,61.6,58.0,30.23,SE,127,0.0,0.0,88,0.00,,---,0.00,VWS V14.01,2013-05-28 03:50:00,
2013-05-27 23:55:00,61.3,57.4,30.23,SE,127,0.0,0.0,87,0.00,,---,0.00,VWS V14.01,2013-05-28 03:55:00,